createdAt,value
2022-12-01T00:01:47.693Z,31.15
2022-12-01T00:11:50.688Z,28.83
2022-12-01T00:21:55.276Z,31.60
2022-12-01T00:31:58.798Z,32.00
2022-12-01T00:42:03.284Z,30.88
2022-12-01T00:52:07.545Z,31.02
2022-12-01T01:02:12.039Z,35.50
2022-12-01T01:12:15.036Z,32.80
2022-12-01T01:22:19.410Z,35.78
2022-12-01T01:32:22.366Z,27.00
2022-12-01T01:42:26.585Z,32.08
2022-12-01T01:52:29.633Z,24.87
2022-12-01T02:02:34.728Z,33.03
2022-12-01T02:13:01.901Z,31.40
2022-12-01T02:23:33.064Z,34.97
2022-12-01T02:33:42.084Z,34.78
2022-12-01T02:43:54.210Z,35.55
2022-12-01T02:54:00.651Z,36.55
2022-12-01T03:04:33.955Z,35.72
2022-12-01T03:14:46.682Z,34.10
2022-12-01T03:24:52.959Z,34.58
2022-12-01T03:35:00.641Z,35.58
2022-12-01T03:45:08.285Z,34.53
2022-12-01T03:55:16.346Z,32.72
2022-12-01T04:05:24.998Z,34.20
2022-12-01T04:15:29.840Z,34.47
2022-12-01T04:25:32.757Z,33.67
2022-12-01T04:35:37.153Z,35.28
2022-12-01T04:45:40.110Z,34.10
2022-12-01T04:55:44.407Z,35.00
2022-12-01T05:05:47.413Z,35.00
2022-12-01T05:15:51.839Z,33.25
2022-12-01T05:25:55.532Z,33.63
2022-12-01T05:35:59.863Z,34.58
2022-12-01T05:46:03.145Z,27.80
2022-12-01T05:56:09.149Z,34.50
2022-12-01T06:06:12.266Z,35.00
2022-12-01T06:16:16.645Z,32.67
2022-12-01T06:26:19.731Z,34.63
2022-12-01T06:36:24.080Z,36.55
2022-12-01T06:46:27.025Z,33.43
2022-12-01T06:56:31.446Z,33.58
2022-12-01T07:06:34.895Z,32.92
2022-12-01T07:16:39.201Z,33.00
2022-12-01T07:26:42.822Z,32.77
2022-12-01T07:36:47.163Z,32.25
2022-12-01T07:46:50.435Z,32.67
2022-12-01T07:56:54.759Z,34.80
2022-12-01T08:06:57.809Z,30.67
2022-12-01T08:17:02.165Z,34.00
2022-12-01T08:27:05.505Z,23.10
2022-12-01T08:37:10.076Z,31.63
2022-12-01T08:47:18.489Z,32.80
2022-12-01T08:57:23.106Z,34.55
2022-12-01T09:07:26.902Z,32.77
2022-12-01T09:17:31.393Z,33.05
2022-12-01T09:27:34.352Z,31.40
2022-12-01T09:37:38.682Z,33.15
2022-12-01T09:47:42.675Z,31.03
2022-12-01T09:57:49.126Z,33.38
2022-12-01T10:07:56.933Z,35.28
2022-12-01T10:18:18.630Z,36.35
2022-12-01T10:28:51.585Z,36.00
2022-12-01T10:38:56.241Z,36.50
2022-12-01T10:49:01.144Z,35.83
2022-12-01T10:59:23.484Z,36.50
2022-12-01T11:09:29.162Z,34.05
2022-12-01T11:19:35.664Z,33.67
2022-12-01T11:29:40.881Z,32.97
2022-12-01T11:39:47.789Z,34.45
2022-12-01T11:49:54.945Z,34.33
2022-12-01T11:59:59.270Z,35.03
2022-12-01T12:10:17.635Z,31.77
2022-12-01T12:20:35.741Z,33.53
2022-12-01T12:30:49.015Z,29.40
2022-12-01T12:40:57.217Z,28.63
2022-12-01T12:51:11.454Z,27.30
2022-12-01T13:01:22.299Z,31.30
2022-12-01T13:11:30.547Z,29.73
2022-12-01T13:21:43.128Z,30.13
2022-12-01T13:31:48.745Z,28.25
2022-12-01T13:42:06.245Z,29.65
2022-12-01T13:52:33.752Z,29.90
2022-12-01T14:02:38.518Z,28.38
2022-12-01T14:12:46.776Z,28.17
2022-12-01T14:23:05.728Z,28.13
2022-12-01T14:33:53.779Z,28.17
2022-12-01T14:44:05.964Z,28.73
2022-12-01T14:54:18.493Z,31.15
2022-12-01T15:04:23.062Z,32.33
2022-12-01T15:14:33.195Z,32.13
2022-12-01T15:24:37.733Z,34.97
2022-12-01T15:34:43.268Z,34.50
2022-12-01T15:45:00.585Z,33.97
2022-12-01T15:55:06.940Z,34.08
2022-12-01T16:05:28.062Z,35.03
2022-12-01T16:15:31.042Z,33.60
2022-12-01T16:25:38.105Z,36.70
2022-12-01T16:35:41.121Z,35.70
2022-12-01T16:45:46.876Z,34.97
2022-12-01T16:55:54.281Z,35.47
2022-12-01T17:06:01.238Z,35.10
2022-12-01T17:16:07.080Z,36.25
2022-12-01T17:26:14.052Z,36.78
2022-12-01T17:36:17.820Z,38.00
2022-12-01T17:46:22.264Z,35.45
2022-12-01T17:56:25.268Z,38.67
2022-12-01T18:06:29.817Z,40.50
2022-12-01T18:16:33.591Z,43.27
2022-12-01T18:26:39.816Z,42.28
2022-12-01T18:36:43.035Z,39.28
2022-12-01T18:46:47.707Z,40.78
2022-12-01T18:56:53.431Z,40.65
2022-12-01T19:06:57.845Z,42.03
2022-12-01T19:17:00.877Z,41.93
2022-12-01T19:27:05.591Z,42.83
2022-12-01T19:37:08.565Z,43.53
2022-12-01T19:47:14.680Z,41.70
2022-12-01T19:57:20.697Z,43.08
2022-12-01T20:07:25.139Z,41.42
2022-12-01T20:17:28.569Z,40.30
2022-12-01T20:27:33.250Z,41.20
2022-12-01T20:37:36.293Z,41.03
2022-12-01T20:47:41.973Z,38.22
2022-12-01T20:57:45.042Z,36.50
2022-12-01T21:07:49.646Z,37.25
2022-12-01T21:17:57.448Z,37.53
2022-12-01T21:28:19.202Z,36.17
2022-12-01T21:38:22.409Z,39.28
2022-12-01T21:48:30.945Z,40.50
2022-12-01T21:58:37.433Z,43.58
2022-12-01T22:08:46.455Z,43.83
2022-12-01T22:18:52.713Z,44.38
2022-12-01T22:29:00.245Z,42.60
2022-12-01T22:39:10.934Z,42.38
2022-12-01T22:49:22.278Z,41.80
2022-12-01T22:59:30.643Z,47.28
2022-12-01T23:09:37.996Z,47.00
2022-12-01T23:19:40.885Z,48.25
2022-12-01T23:29:45.424Z,49.83
2022-12-01T23:39:48.521Z,51.97
2022-12-01T23:49:59.207Z,52.05
